Lashburn, Canada
Current Conditions -  °F | °C
As of 4:00 PM on Tuesday 21 Oct 2014 (Local Time) from CYLL Reporting Station
Overcast Overcast  
Wind Chill: 57°   Ceiling: 4000
Heat Index: 57°   Visibility: 15mi
Dew Point: 41°   Wind: 13mph
Humidity: 55%   Direction: 320°NW
Pressure: 29.58"   Gusts: NA
Location:  53.12°N, 109.61°W
Report Text: CYLL 212100Z 32011KT 15SM BKN040 BKN160 OVC260 14/05 A2958 RMK SC5AC1CI2 VIRGA SLP030 DENSITY ALT 2900FT
Loading
Personal Weather Stations






























Interactive Weather Map
Tropical Storm Tracking
New forecast layout! Learn more

10-Day Weather Forecast

Advertisements
Track Severe Weather on mobile